sensor_id;sensor_type;location;lat;lon;timestamp;P1;durP1;ratioP1;P2;durP2;ratioP2
80823;SDS011;70538;59.122;37.876;2023-07-16T00:01:34;12.88;;;4.10;;
80823;SDS011;70538;59.122;37.876;2023-07-16T00:04:02;10.48;;;4.38;;
80823;SDS011;70538;59.122;37.876;2023-07-16T00:06:29;9.53;;;3.80;;
80823;SDS011;70538;59.122;37.876;2023-07-16T00:08:59;10.35;;;4.35;;
80823;SDS011;70538;59.122;37.876;2023-07-16T00:11:27;13.32;;;5.00;;
80823;SDS011;70538;59.122;37.876;2023-07-16T00:13:55;11.80;;;4.55;;
80823;SDS011;70538;59.122;37.876;2023-07-16T00:16:22;12.35;;;5.10;;
80823;SDS011;70538;59.122;37.876;2023-07-16T00:18:50;14.97;;;5.90;;
80823;SDS011;70538;59.122;37.876;2023-07-16T00:21:18;16.20;;;7.35;;
80823;SDS011;70538;59.122;37.876;2023-07-16T00:23:46;17.60;;;7.68;;
80823;SDS011;70538;59.122;37.876;2023-07-16T00:26:13;17.25;;;6.60;;
80823;SDS011;70538;59.122;37.876;2023-07-16T00:28:42;12.77;;;4.88;;
80823;SDS011;70538;59.122;37.876;2023-07-16T00:31:10;12.80;;;4.70;;
80823;SDS011;70538;59.122;37.876;2023-07-16T00:33:37;15.32;;;6.15;;
80823;SDS011;70538;59.122;37.876;2023-07-16T00:36:05;19.38;;;9.45;;
80823;SDS011;70538;59.122;37.876;2023-07-16T00:38:33;20.27;;;7.68;;
80823;SDS011;70538;59.122;37.876;2023-07-16T00:41:00;19.17;;;8.27;;
80823;SDS011;70538;59.122;37.876;2023-07-16T00:43:28;14.63;;;6.57;;
80823;SDS011;70538;59.122;37.876;2023-07-16T00:45:56;16.00;;;6.85;;
80823;SDS011;70538;59.122;37.876;2023-07-16T00:48:24;20.92;;;6.50;;
80823;SDS011;70538;59.122;37.876;2023-07-16T00:50:52;13.60;;;5.38;;
80823;SDS011;70538;59.122;37.876;2023-07-16T00:53:21;13.93;;;5.05;;
80823;SDS011;70538;59.122;37.876;2023-07-16T00:55:51;10.93;;;4.93;;
80823;SDS011;70538;59.122;37.876;2023-07-16T00:58:19;13.73;;;5.53;;
80823;SDS011;70538;59.122;37.876;2023-07-16T01:00:47;15.25;;;6.55;;
80823;SDS011;70538;59.122;37.876;2023-07-16T01:03:15;15.35;;;6.03;;
80823;SDS011;70538;59.122;37.876;2023-07-16T01:05:53;18.33;;;7.72;;
80823;SDS011;70538;59.122;37.876;2023-07-16T01:08:42;24.73;;;8.13;;
80823;SDS011;70538;59.122;37.876;2023-07-16T01:11:14;21.05;;;7.50;;
80823;SDS011;70538;59.122;37.876;2023-07-16T01:13:42;20.20;;;7.50;;
80823;SDS011;70538;59.122;37.876;2023-07-16T01:16:20;17.33;;;7.07;;
80823;SDS011;70538;59.122;37.876;2023-07-16T01:18:50;16.33;;;7.50;;
80823;SDS011;70538;59.122;37.876;2023-07-16T01:21:19;17.27;;;6.90;;
80823;SDS011;70538;59.122;37.876;2023-07-16T01:29:44;10.00;;;4.25;;
80823;SDS011;70538;59.122;37.876;2023-07-16T01:32:16;10.38;;;3.60;;
80823;SDS011;70538;59.122;37.876;2023-07-16T01:34:44;8.03;;;3.70;;
80823;SDS011;70538;59.122;37.876;2023-07-16T01:37:12;7.53;;;3.60;;
80823;SDS011;70538;59.122;37.876;2023-07-16T01:39:40;8.10;;;3.10;;
80823;SDS011;70538;59.122;37.876;2023-07-16T01:42:08;8.45;;;3.90;;
80823;SDS011;70538;59.122;37.876;2023-07-16T01:44:36;9.25;;;3.90;;
80823;SDS011;70538;59.122;37.876;2023-07-16T01:47:11;7.70;;;3.53;;
80823;SDS011;70538;59.122;37.876;2023-07-16T01:49:51;10.15;;;3.90;;
80823;SDS011;70538;59.122;37.876;2023-07-16T01:52:19;7.60;;;3.42;;
80823;SDS011;70538;59.122;37.876;2023-07-16T01:54:47;7.53;;;3.47;;
80823;SDS011;70538;59.122;37.876;2023-07-16T01:57:15;10.88;;;4.30;;
80823;SDS011;70538;59.122;37.876;2023-07-16T01:59:43;8.60;;;4.00;;
80823;SDS011;70538;59.122;37.876;2023-07-16T02:02:10;9.15;;;4.05;;
80823;SDS011;70538;59.122;37.876;2023-07-16T02:04:38;8.85;;;3.75;;
80823;SDS011;70538;59.122;37.876;2023-07-16T02:07:06;9.20;;;3.75;;
80823;SDS011;70538;59.122;37.876;2023-07-16T02:09:34;8.07;;;3.13;;
80823;SDS011;70538;59.122;37.876;2023-07-16T02:12:02;8.97;;;3.97;;
80823;SDS011;70538;59.122;37.876;2023-07-16T02:14:30;9.82;;;3.72;;
80823;SDS011;70538;59.122;37.876;2023-07-16T02:16:58;7.55;;;3.58;;
80823;SDS011;70538;59.122;37.876;2023-07-16T02:19:26;11.13;;;4.13;;
80823;SDS011;70538;59.122;37.876;2023-07-16T02:21:54;11.98;;;4.65;;
80823;SDS011;70538;59.122;37.876;2023-07-16T02:24:21;12.00;;;4.73;;
80823;SDS011;70538;59.122;37.876;2023-07-16T02:26:49;11.25;;;4.57;;
80823;SDS011;70538;59.122;37.876;2023-07-16T02:29:17;9.32;;;4.30;;
80823;SDS011;70538;59.122;37.876;2023-07-16T02:31:45;10.38;;;4.70;;
80823;SDS011;70538;59.122;37.876;2023-07-16T02:34:15;8.40;;;4.20;;
80823;SDS011;70538;59.122;37.876;2023-07-16T02:36:43;11.73;;;4.03;;
80823;SDS011;70538;59.122;37.876;2023-07-16T02:39:11;10.82;;;4.25;;
80823;SDS011;70538;59.122;37.876;2023-07-16T02:41:38;12.63;;;4.47;;
80823;SDS011;70538;59.122;37.876;2023-07-16T02:44:07;14.23;;;5.43;;
80823;SDS011;70538;59.122;37.876;2023-07-16T02:46:35;11.73;;;4.28;;
80823;SDS011;70538;59.122;37.876;2023-07-16T02:49:03;10.60;;;4.00;;
80823;SDS011;70538;59.122;37.876;2023-07-16T02:51:32;15.50;;;4.53;;
80823;SDS011;70538;59.122;37.876;2023-07-16T02:53:59;14.90;;;4.68;;
80823;SDS011;70538;59.122;37.876;2023-07-16T02:56:27;13.77;;;5.00;;
80823;SDS011;70538;59.122;37.876;2023-07-16T02:58:55;14.77;;;4.82;;
80823;SDS011;70538;59.122;37.876;2023-07-16T03:01:22;14.20;;;5.23;;
80823;SDS011;70538;59.122;37.876;2023-07-16T03:03:50;14.02;;;5.07;;
80823;SDS011;70538;59.122;37.876;2023-07-16T03:06:18;11.10;;;4.70;;
80823;SDS011;70538;59.122;37.876;2023-07-16T03:08:48;18.60;;;5.45;;
80823;SDS011;70538;59.122;37.876;2023-07-16T03:11:16;15.60;;;5.43;;
80823;SDS011;70538;59.122;37.876;2023-07-16T03:13:44;18.27;;;6.30;;
80823;SDS011;70538;59.122;37.876;2023-07-16T03:16:11;13.75;;;5.20;;
80823;SDS011;70538;59.122;37.876;2023-07-16T03:18:39;12.50;;;5.25;;
80823;SDS011;70538;59.122;37.876;2023-07-16T03:21:07;11.68;;;4.40;;
80823;SDS011;70538;59.122;37.876;2023-07-16T03:23:35;11.30;;;4.18;;
80823;SDS011;70538;59.122;37.876;2023-07-16T03:26:03;9.37;;;4.23;;
80823;SDS011;70538;59.122;37.876;2023-07-16T03:28:31;8.90;;;4.00;;
80823;SDS011;70538;59.122;37.876;2023-07-16T03:30:58;9.73;;;3.60;;
80823;SDS011;70538;59.122;37.876;2023-07-16T03:33:26;8.30;;;3.95;;
80823;SDS011;70538;59.122;37.876;2023-07-16T03:35:54;9.48;;;3.83;;
80823;SDS011;70538;59.122;37.876;2023-07-16T03:38:21;10.50;;;3.70;;
80823;SDS011;70538;59.122;37.876;2023-07-16T03:40:49;9.38;;;4.25;;
80823;SDS011;70538;59.122;37.876;2023-07-16T03:43:17;17.52;;;6.43;;
80823;SDS011;70538;59.122;37.876;2023-07-16T03:45:45;33.30;;;10.27;;
80823;SDS011;70538;59.122;37.876;2023-07-16T03:48:13;35.38;;;11.82;;
80823;SDS011;70538;59.122;37.876;2023-07-16T03:50:40;33.00;;;12.07;;
80823;SDS011;70538;59.122;37.876;2023-07-16T03:53:08;34.47;;;11.93;;
80823;SDS011;70538;59.122;37.876;2023-07-16T03:55:36;30.52;;;10.50;;
80823;SDS011;70538;59.122;37.876;2023-07-16T03:58:04;25.23;;;10.50;;
80823;SDS011;70538;59.122;37.876;2023-07-16T04:00:32;15.77;;;6.47;;
80823;SDS011;70538;59.122;37.876;2023-07-16T04:03:00;13.70;;;5.60;;
80823;SDS011;70538;59.122;37.876;2023-07-16T04:05:28;12.77;;;4.90;;
80823;SDS011;70538;59.122;37.876;2023-07-16T04:07:55;10.82;;;4.95;;
80823;SDS011;70538;59.122;37.876;2023-07-16T04:10:23;10.85;;;3.90;;
80823;SDS011;70538;59.122;37.876;2023-07-16T04:12:51;9.30;;;4.10;;
80823;SDS011;70538;59.122;37.876;2023-07-16T04:15:19;8.60;;;3.80;;
80823;SDS011;70538;59.122;37.876;2023-07-16T04:17:46;7.72;;;3.55;;
80823;SDS011;70538;59.122;37.876;2023-07-16T04:20:14;7.60;;;3.50;;
80823;SDS011;70538;59.122;37.876;2023-07-16T04:22:42;8.07;;;3.42;;
80823;SDS011;70538;59.122;37.876;2023-07-16T04:25:13;7.68;;;3.40;;
80823;SDS011;70538;59.122;37.876;2023-07-16T04:27:41;7.17;;;3.10;;
80823;SDS011;70538;59.122;37.876;2023-07-16T04:30:10;8.25;;;2.92;;
80823;SDS011;70538;59.122;37.876;2023-07-16T04:32:38;8.10;;;3.30;;
80823;SDS011;70538;59.122;37.876;2023-07-16T04:35:06;8.13;;;3.53;;
80823;SDS011;70538;59.122;37.876;2023-07-16T04:37:34;8.70;;;3.22;;
80823;SDS011;70538;59.122;37.876;2023-07-16T04:40:02;9.37;;;3.67;;
80823;SDS011;70538;59.122;37.876;2023-07-16T04:42:31;7.43;;;3.08;;
80823;SDS011;70538;59.122;37.876;2023-07-16T04:44:59;7.13;;;2.75;;
80823;SDS011;70538;59.122;37.876;2023-07-16T04:47:26;7.93;;;2.80;;
80823;SDS011;70538;59.122;37.876;2023-07-16T04:49:55;7.03;;;3.00;;
80823;SDS011;70538;59.122;37.876;2023-07-16T04:52:25;8.90;;;3.27;;
80823;SDS011;70538;59.122;37.876;2023-07-16T04:54:53;8.35;;;3.33;;
80823;SDS011;70538;59.122;37.876;2023-07-16T04:57:21;8.00;;;3.30;;
80823;SDS011;70538;59.122;37.876;2023-07-16T04:59:50;9.77;;;3.65;;
80823;SDS011;70538;59.122;37.876;2023-07-16T05:02:17;9.50;;;4.30;;
80823;SDS011;70538;59.122;37.876;2023-07-16T05:04:47;10.50;;;4.10;;
80823;SDS011;70538;59.122;37.876;2023-07-16T05:07:15;11.00;;;4.45;;
80823;SDS011;70538;59.122;37.876;2023-07-16T05:09:43;11.80;;;3.97;;
80823;SDS011;70538;59.122;37.876;2023-07-16T05:12:11;10.13;;;3.75;;
80823;SDS011;70538;59.122;37.876;2023-07-16T05:14:45;8.77;;;3.50;;
80823;SDS011;70538;59.122;37.876;2023-07-16T05:17:14;8.10;;;2.97;;
80823;SDS011;70538;59.122;37.876;2023-07-16T05:19:42;9.75;;;3.10;;
80823;SDS011;70538;59.122;37.876;2023-07-16T05:22:11;7.35;;;3.00;;
80823;SDS011;70538;59.122;37.876;2023-07-16T05:24:38;6.60;;;2.78;;
80823;SDS011;70538;59.122;37.876;2023-07-16T05:27:06;6.97;;;3.03;;
80823;SDS011;70538;59.122;37.876;2023-07-16T05:29:34;9.10;;;2.90;;
80823;SDS011;70538;59.122;37.876;2023-07-16T05:32:02;6.38;;;2.90;;
80823;SDS011;70538;59.122;37.876;2023-07-16T05:34:30;6.70;;;2.58;;
80823;SDS011;70538;59.122;37.876;2023-07-16T05:36:58;5.72;;;2.28;;
80823;SDS011;70538;59.122;37.876;2023-07-16T05:39:25;6.70;;;2.63;;
80823;SDS011;70538;59.122;37.876;2023-07-16T05:41:53;5.80;;;2.60;;
80823;SDS011;70538;59.122;37.876;2023-07-16T05:44:21;5.97;;;2.50;;
80823;SDS011;70538;59.122;37.876;2023-07-16T05:46:48;5.97;;;2.63;;
80823;SDS011;70538;59.122;37.876;2023-07-16T05:49:16;6.43;;;2.75;;
80823;SDS011;70538;59.122;37.876;2023-07-16T05:51:44;6.20;;;2.80;;
80823;SDS011;70538;59.122;37.876;2023-07-16T05:54:12;6.30;;;2.53;;
80823;SDS011;70538;59.122;37.876;2023-07-16T05:56:39;6.03;;;2.60;;
80823;SDS011;70538;59.122;37.876;2023-07-16T05:59:07;7.20;;;3.00;;
80823;SDS011;70538;59.122;37.876;2023-07-16T06:01:35;8.02;;;3.20;;
80823;SDS011;70538;59.122;37.876;2023-07-16T06:04:02;7.63;;;3.00;;
80823;SDS011;70538;59.122;37.876;2023-07-16T06:06:30;8.43;;;2.80;;
80823;SDS011;70538;59.122;37.876;2023-07-16T06:08:58;7.97;;;3.13;;
80823;SDS011;70538;59.122;37.876;2023-07-16T06:11:26;8.93;;;4.00;;
80823;SDS011;70538;59.122;37.876;2023-07-16T06:13:54;8.48;;;2.97;;
80823;SDS011;70538;59.122;37.876;2023-07-16T06:16:22;8.35;;;2.97;;
80823;SDS011;70538;59.122;37.876;2023-07-16T06:18:49;9.10;;;2.90;;
80823;SDS011;70538;59.122;37.876;2023-07-16T06:21:17;10.82;;;3.45;;
80823;SDS011;70538;59.122;37.876;2023-07-16T06:23:45;13.43;;;5.85;;
80823;SDS011;70538;59.122;37.876;2023-07-16T06:26:13;11.38;;;4.40;;
80823;SDS011;70538;59.122;37.876;2023-07-16T06:28:41;7.45;;;2.97;;
80823;SDS011;70538;59.122;37.876;2023-07-16T06:31:09;6.83;;;2.83;;
80823;SDS011;70538;59.122;37.876;2023-07-16T06:33:38;6.85;;;2.80;;
80823;SDS011;70538;59.122;37.876;2023-07-16T06:36:05;8.63;;;3.15;;
80823;SDS011;70538;59.122;37.876;2023-07-16T06:38:33;7.55;;;3.10;;
80823;SDS011;70538;59.122;37.876;2023-07-16T06:41:01;10.75;;;2.90;;
80823;SDS011;70538;59.122;37.876;2023-07-16T06:43:29;6.83;;;3.30;;
80823;SDS011;70538;59.122;37.876;2023-07-16T06:45:56;6.35;;;2.78;;
80823;SDS011;70538;59.122;37.876;2023-07-16T06:48:24;6.82;;;2.50;;
80823;SDS011;70538;59.122;37.876;2023-07-16T06:50:52;7.38;;;2.30;;
80823;SDS011;70538;59.122;37.876;2023-07-16T06:53:20;8.32;;;2.38;;
80823;SDS011;70538;59.122;37.876;2023-07-16T06:55:48;6.00;;;2.43;;
80823;SDS011;70538;59.122;37.876;2023-07-16T06:58:16;5.38;;;2.38;;
80823;SDS011;70538;59.122;37.876;2023-07-16T07:00:44;5.93;;;2.08;;
80823;SDS011;70538;59.122;37.876;2023-07-16T07:03:11;6.32;;;2.00;;
80823;SDS011;70538;59.122;37.876;2023-07-16T07:05:42;6.90;;;2.10;;
80823;SDS011;70538;59.122;37.876;2023-07-16T07:08:10;6.00;;;1.80;;
80823;SDS011;70538;59.122;37.876;2023-07-16T07:10:37;5.80;;;1.63;;
80823;SDS011;70538;59.122;37.876;2023-07-16T07:13:07;7.32;;;2.08;;
80823;SDS011;70538;59.122;37.876;2023-07-16T07:15:34;4.97;;;1.95;;
80823;SDS011;70538;59.122;37.876;2023-07-16T07:18:02;6.57;;;2.35;;
80823;SDS011;70538;59.122;37.876;2023-07-16T07:20:30;7.27;;;2.10;;
80823;SDS011;70538;59.122;37.876;2023-07-16T07:22:58;5.53;;;2.35;;
80823;SDS011;70538;59.122;37.876;2023-07-16T07:25:29;7.32;;;2.20;;
80823;SDS011;70538;59.122;37.876;2023-07-16T07:27:57;6.07;;;2.20;;
80823;SDS011;70538;59.122;37.876;2023-07-16T07:30:25;7.50;;;2.28;;
80823;SDS011;70538;59.122;37.876;2023-07-16T07:32:53;6.47;;;2.23;;
80823;SDS011;70538;59.122;37.876;2023-07-16T07:35:21;6.53;;;2.35;;
80823;SDS011;70538;59.122;37.876;2023-07-16T07:37:48;6.50;;;3.10;;
80823;SDS011;70538;59.122;37.876;2023-07-16T07:40:16;8.65;;;3.88;;
80823;SDS011;70538;59.122;37.876;2023-07-16T07:42:45;8.40;;;3.28;;
80823;SDS011;70538;59.122;37.876;2023-07-16T07:45:14;16.63;;;6.73;;
80823;SDS011;70538;59.122;37.876;2023-07-16T07:47:42;14.18;;;6.05;;
80823;SDS011;70538;59.122;37.876;2023-07-16T07:50:10;13.02;;;4.28;;
80823;SDS011;70538;59.122;37.876;2023-07-16T07:52:38;7.45;;;3.20;;
80823;SDS011;70538;59.122;37.876;2023-07-16T07:55:06;8.65;;;2.30;;
80823;SDS011;70538;59.122;37.876;2023-07-16T07:57:34;5.60;;;2.30;;
80823;SDS011;70538;59.122;37.876;2023-07-16T08:00:02;5.78;;;2.90;;
80823;SDS011;70538;59.122;37.876;2023-07-16T08:02:31;6.25;;;2.60;;
80823;SDS011;70538;59.122;37.876;2023-07-16T08:04:59;8.13;;;2.60;;
80823;SDS011;70538;59.122;37.876;2023-07-16T08:07:31;8.52;;;3.00;;
80823;SDS011;70538;59.122;37.876;2023-07-16T08:09:59;8.60;;;2.10;;
80823;SDS011;70538;59.122;37.876;2023-07-16T08:12:27;9.38;;;2.80;;
80823;SDS011;70538;59.122;37.876;2023-07-16T08:14:55;8.73;;;2.97;;
80823;SDS011;70538;59.122;37.876;2023-07-16T08:17:22;7.78;;;2.50;;
80823;SDS011;70538;59.122;37.876;2023-07-16T08:19:50;7.43;;;2.40;;
80823;SDS011;70538;59.122;37.876;2023-07-16T08:22:18;5.87;;;2.20;;
80823;SDS011;70538;59.122;37.876;2023-07-16T08:24:46;5.50;;;2.22;;
80823;SDS011;70538;59.122;37.876;2023-07-16T08:27:14;7.15;;;2.10;;
80823;SDS011;70538;59.122;37.876;2023-07-16T08:29:41;6.35;;;2.20;;
80823;SDS011;70538;59.122;37.876;2023-07-16T08:32:09;5.25;;;2.33;;
80823;SDS011;70538;59.122;37.876;2023-07-16T08:34:37;6.70;;;2.27;;
80823;SDS011;70538;59.122;37.876;2023-07-16T08:37:05;10.20;;;2.70;;
80823;SDS011;70538;59.122;37.876;2023-07-16T08:39:37;7.72;;;2.30;;
80823;SDS011;70538;59.122;37.876;2023-07-16T08:42:05;7.43;;;2.40;;
80823;SDS011;70538;59.122;37.876;2023-07-16T08:44:37;7.55;;;2.30;;
80823;SDS011;70538;59.122;37.876;2023-07-16T08:47:05;5.70;;;2.30;;
80823;SDS011;70538;59.122;37.876;2023-07-16T08:49:34;5.65;;;2.30;;
80823;SDS011;70538;59.122;37.876;2023-07-16T08:52:02;5.53;;;2.17;;
80823;SDS011;70538;59.122;37.876;2023-07-16T08:54:30;6.05;;;2.10;;
80823;SDS011;70538;59.122;37.876;2023-07-16T08:56:58;5.68;;;2.25;;
80823;SDS011;70538;59.122;37.876;2023-07-16T08:59:26;6.90;;;2.37;;
80823;SDS011;70538;59.122;37.876;2023-07-16T09:01:54;6.30;;;2.20;;
80823;SDS011;70538;59.122;37.876;2023-07-16T09:04:22;7.15;;;3.17;;
80823;SDS011;70538;59.122;37.876;2023-07-16T09:06:50;7.18;;;2.90;;
80823;SDS011;70538;59.122;37.876;2023-07-16T09:09:24;6.32;;;2.40;;
80823;SDS011;70538;59.122;37.876;2023-07-16T09:11:52;6.00;;;3.10;;
80823;SDS011;70538;59.122;37.876;2023-07-16T09:14:20;5.60;;;2.50;;
80823;SDS011;70538;59.122;37.876;2023-07-16T09:16:49;5.32;;;2.47;;
80823;SDS011;70538;59.122;37.876;2023-07-16T09:19:18;6.18;;;2.50;;
80823;SDS011;70538;59.122;37.876;2023-07-16T09:21:48;6.35;;;2.60;;
80823;SDS011;70538;59.122;37.876;2023-07-16T09:24:18;5.50;;;2.50;;
80823;SDS011;70538;59.122;37.876;2023-07-16T09:26:51;8.15;;;3.25;;
80823;SDS011;70538;59.122;37.876;2023-07-16T09:29:20;7.75;;;2.88;;
80823;SDS011;70538;59.122;37.876;2023-07-16T09:32:06;6.95;;;2.70;;
80823;SDS011;70538;59.122;37.876;2023-07-16T09:34:34;8.25;;;3.40;;
80823;SDS011;70538;59.122;37.876;2023-07-16T09:37:02;7.23;;;3.27;;
80823;SDS011;70538;59.122;37.876;2023-07-16T09:39:32;5.60;;;2.50;;
80823;SDS011;70538;59.122;37.876;2023-07-16T09:42:00;5.70;;;2.33;;
80823;SDS011;70538;59.122;37.876;2023-07-16T09:44:29;9.73;;;4.15;;
80823;SDS011;70538;59.122;37.876;2023-07-16T09:46:58;8.48;;;3.00;;
80823;SDS011;70538;59.122;37.876;2023-07-16T09:49:28;7.23;;;3.03;;
80823;SDS011;70538;59.122;37.876;2023-07-16T09:51:57;5.65;;;2.30;;
80823;SDS011;70538;59.122;37.876;2023-07-16T09:54:25;8.07;;;2.80;;
80823;SDS011;70538;59.122;37.876;2023-07-16T09:56:57;16.52;;;5.75;;
80823;SDS011;70538;59.122;37.876;2023-07-16T09:59:30;13.30;;;3.42;;
80823;SDS011;70538;59.122;37.876;2023-07-16T10:02:00;9.90;;;3.63;;
80823;SDS011;70538;59.122;37.876;2023-07-16T10:04:37;11.38;;;4.50;;
80823;SDS011;70538;59.122;37.876;2023-07-16T10:07:21;17.98;;;6.38;;
80823;SDS011;70538;59.122;37.876;2023-07-16T10:09:51;20.15;;;6.38;;
80823;SDS011;70538;59.122;37.876;2023-07-16T10:12:24;12.77;;;4.57;;
80823;SDS011;70538;59.122;37.876;2023-07-16T10:14:54;9.13;;;2.63;;
80823;SDS011;70538;59.122;37.876;2023-07-16T10:17:24;11.32;;;3.80;;
80823;SDS011;70538;59.122;37.876;2023-07-16T10:22:35;7.90;;;3.80;;
80823;SDS011;70538;59.122;37.876;2023-07-16T10:27:46;9.83;;;4.10;;
80823;SDS011;70538;59.122;37.876;2023-07-16T10:30:15;19.38;;;4.18;;
80823;SDS011;70538;59.122;37.876;2023-07-16T10:32:43;9.98;;;3.83;;
80823;SDS011;70538;59.122;37.876;2023-07-16T10:35:11;11.35;;;3.45;;
80823;SDS011;70538;59.122;37.876;2023-07-16T10:37:39;8.82;;;2.80;;
80823;SDS011;70538;59.122;37.876;2023-07-16T10:40:11;8.40;;;2.90;;
80823;SDS011;70538;59.122;37.876;2023-07-16T10:42:40;6.57;;;2.53;;
80823;SDS011;70538;59.122;37.876;2023-07-16T10:45:10;5.35;;;2.50;;
80823;SDS011;70538;59.122;37.876;2023-07-16T10:47:50;5.65;;;2.40;;
80823;SDS011;70538;59.122;37.876;2023-07-16T10:50:20;8.18;;;2.85;;
80823;SDS011;70538;59.122;37.876;2023-07-16T10:52:53;6.73;;;3.10;;
80823;SDS011;70538;59.122;37.876;2023-07-16T10:55:22;6.78;;;2.78;;
80823;SDS011;70538;59.122;37.876;2023-07-16T10:57:50;6.75;;;2.60;;
80823;SDS011;70538;59.122;37.876;2023-07-16T11:00:18;7.25;;;2.72;;
80823;SDS011;70538;59.122;37.876;2023-07-16T11:02:46;6.10;;;2.60;;
80823;SDS011;70538;59.122;37.876;2023-07-16T11:05:15;5.60;;;2.40;;
80823;SDS011;70538;59.122;37.876;2023-07-16T11:07:44;6.13;;;2.40;;
80823;SDS011;70538;59.122;37.876;2023-07-16T11:10:22;7.97;;;2.50;;
80823;SDS011;70538;59.122;37.876;2023-07-16T11:12:51;6.68;;;2.50;;
80823;SDS011;70538;59.122;37.876;2023-07-16T11:15:29;9.05;;;2.95;;
80823;SDS011;70538;59.122;37.876;2023-07-16T11:18:01;6.97;;;2.70;;
80823;SDS011;70538;59.122;37.876;2023-07-16T11:20:30;7.47;;;2.47;;
80823;SDS011;70538;59.122;37.876;2023-07-16T11:22:58;5.32;;;2.35;;
80823;SDS011;70538;59.122;37.876;2023-07-16T11:25:28;7.25;;;2.25;;
80823;SDS011;70538;59.122;37.876;2023-07-16T11:28:00;6.65;;;2.58;;
80823;SDS011;70538;59.122;37.876;2023-07-16T11:30:29;5.17;;;2.10;;
80823;SDS011;70538;59.122;37.876;2023-07-16T11:32:57;5.95;;;2.45;;
80823;SDS011;70538;59.122;37.876;2023-07-16T11:35:25;8.07;;;2.40;;
80823;SDS011;70538;59.122;37.876;2023-07-16T11:37:54;8.15;;;2.70;;
80823;SDS011;70538;59.122;37.876;2023-07-16T11:40:22;6.97;;;2.05;;
80823;SDS011;70538;59.122;37.876;2023-07-16T11:42:49;6.20;;;2.27;;
80823;SDS011;70538;59.122;37.876;2023-07-16T11:45:18;6.80;;;2.22;;
80823;SDS011;70538;59.122;37.876;2023-07-16T11:47:47;6.07;;;2.13;;
80823;SDS011;70538;59.122;37.876;2023-07-16T11:50:15;7.22;;;2.30;;
80823;SDS011;70538;59.122;37.876;2023-07-16T11:52:43;8.20;;;2.80;;
80823;SDS011;70538;59.122;37.876;2023-07-16T11:55:19;6.53;;;3.00;;
80823;SDS011;70538;59.122;37.876;2023-07-16T11:57:47;8.40;;;2.80;;
80823;SDS011;70538;59.122;37.876;2023-07-16T12:00:15;6.78;;;2.55;;
80823;SDS011;70538;59.122;37.876;2023-07-16T12:02:44;7.47;;;3.20;;
80823;SDS011;70538;59.122;37.876;2023-07-16T12:05:22;14.82;;;9.00;;
80823;SDS011;70538;59.122;37.876;2023-07-16T12:08:14;18.83;;;9.30;;
80823;SDS011;70538;59.122;37.876;2023-07-16T12:10:42;13.82;;;6.75;;
80823;SDS011;70538;59.122;37.876;2023-07-16T12:13:10;16.27;;;6.45;;
80823;SDS011;70538;59.122;37.876;2023-07-16T12:15:38;10.00;;;3.70;;
80823;SDS011;70538;59.122;37.876;2023-07-16T12:18:06;12.95;;;5.05;;
80823;SDS011;70538;59.122;37.876;2023-07-16T12:20:34;12.63;;;5.73;;
80823;SDS011;70538;59.122;37.876;2023-07-16T12:23:03;15.38;;;7.30;;
80823;SDS011;70538;59.122;37.876;2023-07-16T12:25:31;22.25;;;7.47;;
80823;SDS011;70538;59.122;37.876;2023-07-16T12:28:00;19.50;;;7.57;;
80823;SDS011;70538;59.122;37.876;2023-07-16T12:30:29;16.88;;;5.00;;
80823;SDS011;70538;59.122;37.876;2023-07-16T12:32:57;12.27;;;4.27;;
80823;SDS011;70538;59.122;37.876;2023-07-16T12:35:25;11.13;;;4.00;;
80823;SDS011;70538;59.122;37.876;2023-07-16T12:37:52;12.45;;;4.45;;
80823;SDS011;70538;59.122;37.876;2023-07-16T12:40:20;11.32;;;4.20;;
80823;SDS011;70538;59.122;37.876;2023-07-16T12:42:48;7.28;;;2.97;;
80823;SDS011;70538;59.122;37.876;2023-07-16T12:45:15;6.47;;;2.97;;
80823;SDS011;70538;59.122;37.876;2023-07-16T12:47:43;5.65;;;2.67;;
80823;SDS011;70538;59.122;37.876;2023-07-16T12:50:11;5.30;;;2.70;;
80823;SDS011;70538;59.122;37.876;2023-07-16T12:52:38;6.63;;;2.70;;
80823;SDS011;70538;59.122;37.876;2023-07-16T12:55:06;6.03;;;2.80;;
80823;SDS011;70538;59.122;37.876;2023-07-16T12:57:34;5.60;;;2.47;;
80823;SDS011;70538;59.122;37.876;2023-07-16T13:00:02;6.97;;;2.67;;
80823;SDS011;70538;59.122;37.876;2023-07-16T13:02:34;7.78;;;3.20;;
80823;SDS011;70538;59.122;37.876;2023-07-16T13:05:02;9.60;;;3.15;;
80823;SDS011;70538;59.122;37.876;2023-07-16T13:07:30;6.32;;;2.42;;
80823;SDS011;70538;59.122;37.876;2023-07-16T13:09:58;12.07;;;3.97;;
80823;SDS011;70538;59.122;37.876;2023-07-16T13:12:43;10.05;;;3.65;;
80823;SDS011;70538;59.122;37.876;2023-07-16T13:15:11;8.00;;;3.75;;
80823;SDS011;70538;59.122;37.876;2023-07-16T13:17:39;7.60;;;3.30;;
80823;SDS011;70538;59.122;37.876;2023-07-16T13:20:07;8.38;;;3.28;;
80823;SDS011;70538;59.122;37.876;2023-07-16T13:22:36;8.97;;;3.50;;
80823;SDS011;70538;59.122;37.876;2023-07-16T13:25:04;7.72;;;3.13;;
80823;SDS011;70538;59.122;37.876;2023-07-16T13:27:32;10.88;;;4.80;;
80823;SDS011;70538;59.122;37.876;2023-07-16T13:30:00;12.38;;;5.30;;
80823;SDS011;70538;59.122;37.876;2023-07-16T13:32:31;12.73;;;5.30;;
80823;SDS011;70538;59.122;37.876;2023-07-16T13:34:58;10.90;;;5.40;;
80823;SDS011;70538;59.122;37.876;2023-07-16T13:37:27;10.73;;;4.78;;
80823;SDS011;70538;59.122;37.876;2023-07-16T13:39:55;8.70;;;4.00;;
80823;SDS011;70538;59.122;37.876;2023-07-16T13:42:23;7.57;;;3.72;;
80823;SDS011;70538;59.122;37.876;2023-07-16T13:44:51;5.95;;;2.90;;
80823;SDS011;70538;59.122;37.876;2023-07-16T13:47:18;7.10;;;3.03;;
80823;SDS011;70538;59.122;37.876;2023-07-16T13:49:48;9.25;;;3.03;;
80823;SDS011;70538;59.122;37.876;2023-07-16T13:52:16;7.22;;;2.60;;
80823;SDS011;70538;59.122;37.876;2023-07-16T13:54:46;5.70;;;2.72;;
80823;SDS011;70538;59.122;37.876;2023-07-16T13:57:14;6.47;;;2.53;;
80823;SDS011;70538;59.122;37.876;2023-07-16T13:59:41;6.43;;;2.80;;
80823;SDS011;70538;59.122;37.876;2023-07-16T14:02:09;8.07;;;2.58;;
80823;SDS011;70538;59.122;37.876;2023-07-16T14:04:37;7.18;;;2.72;;
80823;SDS011;70538;59.122;37.876;2023-07-16T14:07:05;6.10;;;2.33;;
80823;SDS011;70538;59.122;37.876;2023-07-16T14:09:33;6.15;;;3.05;;
80823;SDS011;70538;59.122;37.876;2023-07-16T14:12:00;6.00;;;2.70;;
80823;SDS011;70538;59.122;37.876;2023-07-16T14:14:28;8.13;;;2.92;;
80823;SDS011;70538;59.122;37.876;2023-07-16T14:16:56;6.78;;;2.67;;
80823;SDS011;70538;59.122;37.876;2023-07-16T14:19:24;6.90;;;3.05;;
80823;SDS011;70538;59.122;37.876;2023-07-16T14:21:52;6.60;;;2.60;;
80823;SDS011;70538;59.122;37.876;2023-07-16T14:24:19;6.10;;;2.60;;
80823;SDS011;70538;59.122;37.876;2023-07-16T14:26:47;5.78;;;2.53;;
80823;SDS011;70538;59.122;37.876;2023-07-16T14:29:16;5.90;;;2.60;;
80823;SDS011;70538;59.122;37.876;2023-07-16T14:31:43;9.63;;;4.95;;
80823;SDS011;70538;59.122;37.876;2023-07-16T14:34:11;9.85;;;3.22;;
80823;SDS011;70538;59.122;37.876;2023-07-16T14:36:40;9.43;;;2.83;;
80823;SDS011;70538;59.122;37.876;2023-07-16T14:39:09;9.32;;;3.28;;
80823;SDS011;70538;59.122;37.876;2023-07-16T14:41:36;9.07;;;3.10;;
80823;SDS011;70538;59.122;37.876;2023-07-16T14:44:05;12.13;;;3.67;;
80823;SDS011;70538;59.122;37.876;2023-07-16T14:46:33;9.55;;;3.30;;
80823;SDS011;70538;59.122;37.876;2023-07-16T14:49:01;14.53;;;3.60;;
80823;SDS011;70538;59.122;37.876;2023-07-16T14:51:29;10.88;;;3.45;;